createdAt,value
2018-08-09T00:01:36.488Z,10.20
2018-08-09T00:04:04.470Z,9.60
2018-08-09T00:06:32.505Z,10.47
2018-08-09T00:09:00.534Z,10.33
2018-08-09T00:11:28.876Z,8.60
2018-08-09T00:13:56.940Z,8.97
2018-08-09T00:16:24.942Z,8.17
2018-08-09T00:18:53.332Z,8.70
2018-08-09T00:21:21.316Z,7.40
2018-08-09T00:23:49.432Z,7.50
2018-08-09T00:26:17.429Z,7.37
2018-08-09T00:28:45.405Z,7.30
2018-08-09T00:31:13.416Z,6.83
2018-08-09T00:33:41.590Z,8.00
2018-08-09T00:36:09.588Z,7.23
2018-08-09T00:38:37.614Z,8.27
2018-08-09T00:41:05.600Z,8.00
2018-08-09T00:43:33.615Z,7.57
2018-08-09T00:46:01.621Z,6.87
2018-08-09T00:48:29.619Z,7.47
2018-08-09T00:50:57.658Z,7.60
2018-08-09T00:53:25.661Z,6.67
2018-08-09T00:55:53.732Z,7.63
2018-08-09T00:58:21.751Z,8.20
2018-08-09T01:00:49.780Z,7.90
2018-08-09T01:03:17.793Z,7.90
2018-08-09T01:05:45.798Z,6.63
2018-08-09T01:08:13.787Z,7.27
2018-08-09T01:10:41.841Z,6.60
2018-08-09T01:13:10.973Z,8.13
2018-08-09T01:15:38.972Z,9.00
2018-08-09T01:18:07.952Z,8.40
2018-08-09T01:20:36.038Z,7.43
2018-08-09T01:23:04.034Z,7.90
2018-08-09T01:25:32.038Z,7.67
2018-08-09T01:28:00.170Z,8.03
2018-08-09T01:30:28.162Z,8.50
2018-08-09T01:32:56.267Z,8.90
2018-08-09T01:35:24.208Z,8.93
2018-08-09T01:37:52.240Z,9.20
2018-08-09T01:40:20.233Z,9.53
2018-08-09T01:42:59.943Z,8.87
2018-08-09T01:45:27.934Z,9.30
2018-08-09T01:47:55.948Z,9.23
2018-08-09T01:50:23.971Z,8.50
2018-08-09T01:52:51.988Z,9.20
2018-08-09T01:55:20.044Z,9.47
2018-08-09T01:57:48.222Z,9.20
2018-08-09T02:00:16.248Z,9.23
2018-08-09T02:02:44.289Z,9.30
2018-08-09T02:05:12.336Z,9.53
2018-08-09T02:07:40.512Z,11.30
2018-08-09T02:10:08.600Z,10.27
2018-08-09T02:12:36.606Z,9.23
2018-08-09T02:15:04.876Z,9.53
2018-08-09T02:17:32.880Z,9.00
2018-08-09T02:20:00.880Z,9.23
2018-08-09T02:22:28.931Z,9.30
2018-08-09T02:24:57.109Z,9.73
2018-08-09T02:27:25.157Z,10.30
2018-08-09T02:29:53.185Z,10.37
2018-08-09T02:32:21.231Z,8.83
2018-08-09T02:34:49.221Z,9.33
2018-08-09T02:37:17.249Z,10.10
2018-08-09T02:39:45.248Z,8.87
2018-08-09T02:42:13.314Z,10.27
2018-08-09T02:44:41.417Z,8.73
2018-08-09T02:47:09.409Z,8.73
2018-08-09T02:49:37.406Z,9.50
2018-08-09T02:52:05.442Z,8.77
2018-08-09T02:54:33.453Z,9.00
2018-08-09T02:57:01.465Z,10.53
2018-08-09T02:59:29.468Z,9.37
2018-08-09T03:01:57.489Z,9.53
2018-08-09T03:04:25.523Z,9.73
2018-08-09T03:06:53.572Z,9.70
2018-08-09T03:09:21.566Z,9.20
2018-08-09T03:11:49.566Z,9.20
2018-08-09T03:14:17.557Z,10.23
2018-08-09T03:16:45.609Z,9.83
2018-08-09T03:19:13.637Z,10.27
2018-08-09T03:21:41.652Z,10.13
2018-08-09T03:24:09.772Z,10.13
2018-08-09T03:26:37.765Z,10.27
2018-08-09T03:29:05.845Z,9.43
2018-08-09T03:31:33.851Z,9.03
2018-08-09T03:34:01.840Z,10.13
2018-08-09T03:36:29.832Z,9.60
2018-08-09T03:38:57.950Z,10.10
2018-08-09T03:41:25.937Z,10.00
2018-08-09T03:43:53.960Z,10.30
2018-08-09T03:46:22.088Z,11.10
2018-08-09T03:48:50.173Z,10.73
2018-08-09T03:51:19.271Z,11.20
2018-08-09T03:53:47.824Z,10.80
2018-08-09T03:56:15.816Z,9.87
2018-08-09T03:58:43.836Z,10.73
2018-08-09T04:01:11.892Z,10.07
2018-08-09T04:03:39.936Z,10.60
2018-08-09T04:06:09.045Z,11.37
2018-08-09T04:08:37.080Z,12.60
2018-08-09T04:11:05.124Z,11.83
2018-08-09T04:13:33.128Z,11.63
2018-08-09T04:16:01.117Z,10.67
2018-08-09T04:18:29.133Z,11.40
2018-08-09T04:20:57.157Z,10.03
2018-08-09T04:23:25.165Z,11.50
2018-08-09T04:25:53.185Z,11.77
2018-08-09T04:28:21.201Z,11.20
2018-08-09T04:30:49.198Z,12.60
2018-08-09T04:33:17.227Z,12.40
2018-08-09T04:35:45.259Z,11.23
2018-08-09T04:38:13.393Z,11.80
2018-08-09T04:40:41.440Z,12.07
2018-08-09T04:43:09.471Z,11.40
2018-08-09T04:45:37.575Z,11.40
2018-08-09T04:48:05.804Z,11.97
2018-08-09T04:50:33.992Z,12.53
2018-08-09T04:53:02.272Z,11.30
2018-08-09T04:55:30.341Z,11.70
2018-08-09T04:57:58.371Z,11.53
2018-08-09T05:00:26.348Z,11.53
2018-08-09T05:02:54.465Z,11.63
2018-08-09T05:05:22.462Z,11.40
2018-08-09T05:07:50.536Z,11.40
2018-08-09T05:10:18.587Z,11.70
2018-08-09T05:12:46.524Z,10.60
2018-08-09T05:15:14.509Z,9.97
2018-08-09T05:17:42.510Z,11.20
2018-08-09T05:20:10.513Z,9.77
2018-08-09T05:22:38.521Z,10.10
2018-08-09T05:25:06.997Z,9.33
2018-08-09T05:27:35.057Z,8.60
2018-08-09T05:30:03.861Z,8.57
2018-08-09T05:32:31.848Z,8.77
2018-08-09T05:34:59.921Z,8.50
2018-08-09T05:37:27.905Z,7.97
2018-08-09T05:39:55.885Z,8.77
2018-08-09T05:42:23.884Z,8.90
2018-08-09T05:44:51.943Z,8.13
2018-08-09T05:47:19.995Z,8.60
2018-08-09T05:49:47.992Z,7.53
2018-08-09T05:52:15.988Z,7.47
2018-08-09T05:54:44.032Z,7.10
2018-08-09T05:57:12.056Z,6.83
2018-08-09T05:59:40.064Z,7.37
2018-08-09T06:02:08.171Z,5.50
2018-08-09T06:04:36.253Z,7.30
2018-08-09T06:07:04.251Z,5.87
2018-08-09T06:09:32.273Z,5.97
2018-08-09T06:12:00.267Z,5.80
2018-08-09T06:14:28.260Z,5.47
2018-08-09T06:16:56.280Z,5.20
2018-08-09T06:19:24.276Z,4.97
2018-08-09T06:21:52.257Z,4.63
2018-08-09T06:24:20.297Z,4.20
2018-08-09T06:26:48.307Z,4.23
2018-08-09T06:29:16.304Z,4.43
2018-08-09T06:31:44.309Z,4.43
2018-08-09T06:34:12.326Z,3.90
2018-08-09T06:36:40.309Z,4.37
2018-08-09T06:39:08.741Z,4.43
2018-08-09T06:41:37.004Z,4.30
2018-08-09T06:44:05.000Z,4.50
2018-08-09T06:46:32.985Z,4.73
2018-08-09T06:49:01.116Z,5.13
2018-08-09T06:51:29.136Z,4.83
2018-08-09T06:53:57.164Z,5.70
2018-08-09T06:56:25.591Z,5.50
2018-08-09T06:58:53.761Z,5.30
2018-08-09T07:01:21.816Z,6.00
2018-08-09T07:03:49.842Z,6.23
2018-08-09T07:06:17.895Z,5.53
2018-08-09T07:08:45.976Z,5.73
2018-08-09T07:11:14.005Z,6.50
2018-08-09T07:13:42.096Z,7.40
2018-08-09T07:16:10.118Z,7.20
2018-08-09T07:18:38.139Z,6.87
2018-08-09T07:21:06.436Z,5.87
2018-08-09T07:23:34.577Z,6.30
2018-08-09T07:26:02.638Z,6.33
2018-08-09T07:28:30.656Z,6.33
2018-08-09T07:30:58.696Z,6.20
2018-08-09T07:33:27.058Z,5.70
2018-08-09T07:35:55.044Z,5.93
2018-08-09T07:38:23.048Z,5.43
2018-08-09T07:40:51.036Z,5.77
2018-08-09T07:43:19.136Z,5.50
2018-08-09T07:45:47.132Z,5.03
2018-08-09T07:48:15.221Z,5.70
2018-08-09T07:50:43.220Z,5.90
2018-08-09T07:53:11.227Z,5.70
2018-08-09T07:55:39.287Z,5.60
2018-08-09T07:58:07.337Z,4.80
2018-08-09T08:00:35.344Z,5.40
2018-08-09T08:03:03.342Z,5.23
2018-08-09T08:05:31.428Z,6.67
2018-08-09T08:07:59.408Z,5.43
2018-08-09T08:10:27.417Z,6.80
2018-08-09T08:12:55.429Z,5.40
2018-08-09T08:15:23.473Z,6.57
2018-08-09T08:17:51.457Z,5.20
2018-08-09T08:20:19.448Z,6.30
2018-08-09T08:22:47.425Z,5.00
2018-08-09T08:25:15.426Z,5.40
2018-08-09T08:27:43.472Z,6.40
2018-08-09T08:30:13.184Z,6.10
2018-08-09T08:32:41.961Z,5.43
2018-08-09T08:35:10.444Z,5.93
2018-08-09T08:37:38.820Z,5.10
2018-08-09T08:40:07.229Z,5.33
2018-08-09T08:42:35.477Z,5.70
2018-08-09T08:45:04.037Z,6.17
2018-08-09T08:47:32.033Z,4.93
2018-08-09T08:50:00.018Z,5.87
2018-08-09T08:52:28.052Z,6.27
2018-08-09T08:54:56.049Z,4.37
2018-08-09T08:57:24.093Z,5.50
2018-08-09T08:59:52.118Z,5.40
2018-08-09T09:02:20.104Z,5.60
2018-08-09T09:04:48.091Z,4.80
2018-08-09T09:07:16.158Z,5.07
2018-08-09T09:09:44.147Z,5.13
2018-08-09T09:12:12.148Z,5.33
2018-08-09T09:14:40.134Z,6.07
2018-08-09T09:17:08.192Z,5.67
2018-08-09T09:19:36.185Z,5.57
2018-08-09T09:22:04.321Z,5.67
2018-08-09T09:24:32.311Z,5.70
2018-08-09T09:27:00.350Z,4.83
2018-08-09T09:29:28.285Z,5.27
2018-08-09T09:31:56.286Z,5.30
2018-08-09T09:34:24.321Z,5.30
2018-08-09T09:36:52.312Z,5.10
2018-08-09T09:39:21.304Z,5.40
2018-08-09T09:41:49.308Z,5.97
2018-08-09T09:44:17.284Z,4.90
2018-08-09T09:46:45.286Z,5.57
2018-08-09T09:49:13.325Z,5.00
2018-08-09T09:51:41.313Z,4.73
2018-08-09T09:54:09.474Z,5.40
2018-08-09T09:56:37.840Z,5.20
2018-08-09T09:59:05.850Z,4.60
2018-08-09T10:01:34.663Z,5.93
2018-08-09T10:04:03.589Z,6.00
2018-08-09T10:06:32.027Z,5.43
2018-08-09T10:09:00.074Z,5.60
2018-08-09T10:11:28.098Z,5.23
2018-08-09T10:13:56.129Z,5.87
2018-08-09T10:16:24.237Z,6.33
2018-08-09T10:18:52.189Z,5.83
2018-08-09T10:21:20.294Z,5.80
2018-08-09T10:23:48.300Z,5.37
2018-08-09T10:26:16.305Z,5.30
2018-08-09T10:28:44.325Z,6.37
2018-08-09T10:31:12.339Z,6.33
2018-08-09T10:33:40.348Z,6.83
2018-08-09T10:36:08.438Z,5.47
2018-08-09T10:38:36.480Z,6.00
2018-08-09T10:41:05.151Z,6.63
2018-08-09T10:43:33.181Z,6.57
2018-08-09T10:46:01.532Z,6.33
2018-08-09T10:48:29.820Z,7.50
2018-08-09T10:50:57.813Z,7.20
2018-08-09T10:53:25.868Z,8.03
2018-08-09T10:55:53.885Z,8.50
2018-08-09T10:58:21.876Z,7.87
2018-08-09T11:00:49.908Z,9.43
2018-08-09T11:03:17.912Z,9.13
2018-08-09T11:05:45.984Z,7.83
2018-08-09T11:08:13.976Z,7.57
2018-08-09T11:10:41.988Z,8.40
2018-08-09T11:13:09.996Z,7.87
2018-08-09T11:15:38.062Z,9.00
2018-08-09T11:18:06.060Z,7.90
2018-08-09T11:20:34.121Z,7.70
2018-08-09T11:23:02.510Z,8.67
2018-08-09T11:25:30.527Z,7.30
2018-08-09T11:27:58.535Z,8.17
2018-08-09T11:30:26.545Z,7.03
2018-08-09T11:32:54.556Z,7.43
2018-08-09T11:35:22.864Z,7.33
2018-08-09T11:37:50.956Z,6.87
2018-08-09T11:40:18.957Z,8.37
2018-08-09T11:42:46.996Z,7.80
2018-08-09T11:45:15.031Z,7.07
2018-08-09T11:47:43.048Z,6.53
2018-08-09T11:50:11.368Z,7.43
2018-08-09T11:52:39.420Z,7.60
2018-08-09T11:55:07.585Z,7.20
2018-08-09T11:57:35.601Z,7.27
2018-08-09T12:00:06.475Z,7.40
2018-08-09T12:02:34.575Z,7.17
2018-08-09T12:05:02.565Z,6.80
2018-08-09T12:07:30.580Z,6.93
2018-08-09T12:09:58.792Z,6.37
2018-08-09T12:12:26.830Z,7.37
2018-08-09T12:14:54.845Z,7.17
2018-08-09T12:17:22.868Z,6.00
2018-08-09T12:19:50.880Z,5.87
2018-08-09T12:22:18.880Z,5.93
2018-08-09T12:24:46.924Z,5.97
2018-08-09T12:27:14.953Z,6.43
2018-08-09T12:29:43.080Z,6.33
2018-08-09T12:32:11.133Z,5.50
2018-08-09T12:34:39.188Z,5.83
2018-08-09T12:37:07.415Z,6.37
2018-08-09T12:39:35.716Z,6.30
2018-08-09T12:42:03.729Z,6.00
2018-08-09T12:44:31.812Z,6.33
2018-08-09T12:46:59.828Z,6.63
2018-08-09T12:49:27.844Z,6.20
2018-08-09T12:51:55.860Z,6.67
2018-08-09T12:54:23.923Z,6.40
2018-08-09T12:56:51.921Z,5.80
2018-08-09T12:59:19.922Z,6.10
2018-08-09T13:01:47.960Z,5.13
2018-08-09T13:04:16.000Z,5.93
2018-08-09T13:06:44.100Z,5.77
2018-08-09T13:09:12.402Z,6.70
2018-08-09T13:11:40.458Z,6.80
2018-08-09T13:14:08.613Z,5.70
2018-08-09T13:16:36.603Z,5.90
2018-08-09T13:19:04.629Z,6.20
2018-08-09T13:21:32.736Z,5.90
2018-08-09T13:24:00.742Z,6.13
2018-08-09T13:26:28.748Z,6.57
2018-08-09T13:28:56.763Z,6.30
2018-08-09T13:31:24.804Z,5.80
2018-08-09T13:33:52.969Z,5.90
2018-08-09T13:36:21.080Z,6.30
2018-08-09T13:38:49.132Z,5.73
2018-08-09T13:41:17.129Z,6.03
2018-08-09T13:43:45.205Z,6.00
2018-08-09T13:46:13.201Z,6.13
2018-08-09T13:48:41.272Z,5.20
2018-08-09T13:51:09.280Z,6.53
2018-08-09T13:53:37.301Z,6.20
2018-08-09T13:56:05.381Z,5.63
2018-08-09T13:58:33.465Z,5.70
2018-08-09T14:01:01.449Z,6.10
2018-08-09T14:03:29.509Z,5.27
2018-08-09T14:05:57.668Z,5.10
2018-08-09T14:08:25.681Z,5.80
2018-08-09T14:10:53.733Z,5.40
2018-08-09T14:13:21.746Z,5.63
2018-08-09T14:15:49.740Z,6.50
2018-08-09T14:18:17.776Z,6.37
2018-08-09T14:20:45.781Z,6.33
2018-08-09T14:23:13.780Z,6.70
2018-08-09T14:25:41.864Z,6.27
2018-08-09T14:28:09.860Z,6.63
2018-08-09T14:30:37.948Z,6.20
2018-08-09T14:33:06.488Z,5.73
2018-08-09T14:35:34.505Z,6.47
2018-08-09T14:38:02.577Z,6.80
2018-08-09T14:40:30.573Z,6.03
2018-08-09T14:42:58.597Z,5.93
2018-08-09T14:45:26.633Z,5.63
2018-08-09T14:47:54.663Z,5.77
2018-08-09T14:50:22.721Z,5.60
2018-08-09T14:52:50.752Z,7.00
2018-08-09T14:55:18.769Z,6.00
2018-08-09T14:57:46.772Z,6.27
2018-08-09T15:00:20.740Z,5.77
2018-08-09T15:02:48.904Z,6.40
2018-08-09T15:05:17.344Z,6.80
2018-08-09T15:07:45.587Z,6.70
2018-08-09T15:10:14.354Z,6.20
2018-08-09T15:12:42.350Z,6.47
2018-08-09T15:15:11.180Z,6.77
2018-08-09T15:17:39.326Z,6.67
2018-08-09T15:20:09.296Z,6.77
2018-08-09T15:22:37.803Z,6.50
2018-08-09T15:25:06.677Z,5.60
2018-08-09T15:27:34.836Z,7.10
2018-08-09T15:30:02.856Z,6.73
2018-08-09T15:32:30.893Z,7.73
2018-08-09T15:34:58.920Z,7.90
2018-08-09T15:37:26.933Z,5.90
2018-08-09T15:39:54.941Z,7.20
2018-08-09T15:42:22.985Z,5.93
2018-08-09T15:44:51.026Z,6.47
2018-08-09T15:47:19.169Z,5.80
2018-08-09T15:49:47.092Z,7.20
2018-08-09T15:52:15.132Z,5.83
2018-08-09T15:54:43.124Z,5.90
2018-08-09T15:57:11.113Z,5.73
2018-08-09T15:59:39.124Z,5.30
2018-08-09T16:02:07.202Z,6.43
2018-08-09T16:04:35.189Z,6.57
2018-08-09T16:07:03.269Z,5.73
2018-08-09T16:09:31.277Z,6.67
2018-08-09T16:11:59.348Z,6.20
2018-08-09T16:14:27.357Z,6.00
2018-08-09T16:16:55.353Z,5.20
2018-08-09T16:19:23.457Z,3.80
2018-08-09T16:21:51.473Z,3.37
2018-08-09T16:24:19.477Z,2.93
2018-08-09T16:26:47.461Z,2.83
2018-08-09T16:29:16.275Z,2.53
2018-08-09T16:31:44.272Z,2.90
2018-08-09T16:34:12.318Z,2.90
2018-08-09T16:36:40.428Z,2.80
2018-08-09T16:39:11.560Z,2.10
2018-08-09T16:41:39.613Z,2.43
2018-08-09T16:44:07.929Z,4.10
2018-08-09T16:46:35.960Z,3.53
2018-08-09T16:49:03.976Z,2.90
2018-08-09T16:51:32.047Z,3.17
2018-08-09T16:54:00.072Z,3.13
2018-08-09T16:56:28.175Z,3.30
2018-08-09T16:58:56.160Z,2.80
2018-08-09T17:01:24.168Z,2.57
2018-08-09T17:03:52.621Z,3.17
2018-08-09T17:06:21.064Z,2.97
2018-08-09T17:08:49.476Z,3.10
2018-08-09T17:11:17.517Z,2.53
2018-08-09T17:13:45.549Z,3.67
2018-08-09T17:16:13.612Z,3.00
2018-08-09T17:18:41.633Z,2.83
2018-08-09T17:21:09.648Z,3.60
2018-08-09T17:23:37.684Z,3.33
2018-08-09T17:26:05.700Z,3.23
2018-08-09T17:28:33.727Z,3.07
2018-08-09T17:31:01.761Z,3.33
2018-08-09T17:33:29.768Z,2.87
2018-08-09T17:35:57.828Z,2.77
2018-08-09T17:38:25.820Z,3.20
2018-08-09T17:40:53.826Z,2.53
2018-08-09T17:43:21.831Z,2.80
2018-08-09T17:45:49.809Z,2.40
2018-08-09T17:48:17.800Z,2.87
2018-08-09T17:50:45.792Z,3.97
2018-08-09T17:53:13.818Z,3.17
2018-08-09T17:55:41.804Z,3.23
2018-08-09T17:58:09.825Z,3.30
2018-08-09T18:00:37.886Z,3.20
2018-08-09T18:03:05.983Z,3.50
2018-08-09T18:05:34.035Z,3.33
2018-08-09T18:08:02.475Z,3.40
2018-08-09T18:10:33.117Z,3.40
2018-08-09T18:13:01.110Z,2.90
2018-08-09T18:15:29.922Z,4.07
2018-08-09T18:17:58.461Z,3.53
2018-08-09T18:20:29.408Z,3.90
2018-08-09T18:22:57.480Z,3.90
2018-08-09T18:25:25.575Z,4.53
2018-08-09T18:27:53.748Z,3.63
2018-08-09T18:30:21.999Z,4.50
2018-08-09T18:32:50.086Z,4.60
2018-08-09T18:35:18.960Z,5.20
2018-08-09T18:37:46.956Z,4.93
2018-08-09T18:40:16.841Z,4.17
2018-08-09T18:42:44.848Z,4.40
2018-08-09T18:45:12.913Z,5.67
2018-08-09T18:47:41.289Z,5.30
2018-08-09T18:50:14.794Z,5.53
2018-08-09T18:52:42.900Z,5.20
2018-08-09T18:55:11.760Z,5.20
2018-08-09T18:57:40.284Z,4.77
2018-08-09T19:00:15.263Z,5.80
2018-08-09T19:02:44.784Z,4.67
2018-08-09T19:05:12.784Z,5.30
2018-08-09T19:07:40.817Z,5.20
2018-08-09T19:10:10.864Z,4.70
2018-08-09T19:12:38.920Z,4.60
2018-08-09T19:15:08.315Z,4.30
2018-08-09T19:17:36.917Z,4.90
2018-08-09T19:20:06.576Z,5.30
2018-08-09T19:22:34.677Z,6.20
2018-08-09T19:25:02.829Z,4.73
2018-08-09T19:30:36.136Z,4.80
2018-08-09T19:33:04.138Z,4.60
2018-08-09T19:35:32.195Z,4.40
2018-08-09T19:38:00.241Z,4.30
2018-08-09T19:40:29.340Z,3.90
2018-08-09T19:42:57.431Z,4.50
2018-08-09T19:45:25.457Z,4.10
2018-08-09T19:47:53.482Z,3.50
2018-08-09T19:50:22.784Z,4.70
2018-08-09T19:52:50.801Z,4.23
2018-08-09T19:55:20.258Z,4.20
2018-08-09T19:57:49.119Z,3.33
2018-08-09T20:00:20.416Z,3.80
2018-08-09T20:02:49.025Z,3.80
2018-08-09T20:05:17.164Z,3.30
2018-08-09T20:07:45.155Z,3.00
2018-08-09T20:10:13.608Z,3.07
2018-08-09T20:12:41.984Z,3.17
2018-08-09T20:15:13.232Z,3.40
2018-08-09T20:17:41.513Z,3.20
2018-08-09T20:22:37.108Z,3.83
2018-08-09T20:25:06.554Z,2.50
2018-08-09T20:27:34.584Z,2.30
2018-08-09T20:30:02.612Z,2.70
2018-08-09T20:32:30.649Z,3.30
2018-08-09T20:34:58.884Z,3.20
2018-08-09T20:37:26.898Z,3.00
2018-08-09T20:39:54.912Z,3.33
2018-08-09T20:42:22.996Z,3.47
2018-08-09T20:44:51.009Z,3.47
2018-08-09T20:47:19.014Z,2.60
2018-08-09T20:49:47.073Z,3.20
2018-08-09T20:52:15.060Z,2.93
2018-08-09T20:54:43.054Z,2.50
2018-08-09T20:57:11.181Z,3.70
2018-08-09T20:59:39.268Z,2.93
2018-08-09T21:02:07.268Z,2.40
2018-08-09T21:04:35.548Z,3.00
2018-08-09T21:07:03.573Z,2.77
2018-08-09T21:09:31.644Z,2.80
2018-08-09T21:11:59.668Z,2.60
2018-08-09T21:14:27.796Z,2.73
2018-08-09T21:16:55.805Z,2.90
2018-08-09T21:19:23.820Z,2.50
2018-08-09T21:21:51.841Z,2.57
2018-08-09T21:24:19.857Z,2.83
2018-08-09T21:26:47.853Z,2.33
2018-08-09T21:29:15.909Z,2.93
2018-08-09T21:31:43.908Z,2.80
2018-08-09T21:34:12.013Z,2.67
2018-08-09T21:36:40.058Z,2.97
2018-08-09T21:39:09.538Z,3.30
2018-08-09T21:41:37.554Z,2.53
2018-08-09T21:44:05.564Z,2.23
2018-08-09T21:46:33.581Z,3.03
2018-08-09T21:49:01.937Z,2.63
2018-08-09T21:51:30.034Z,2.37
2018-08-09T21:53:58.029Z,2.27
2018-08-09T21:56:26.060Z,2.10
2018-08-09T21:58:54.057Z,2.53
2018-08-09T22:01:22.172Z,2.30
2018-08-09T22:03:50.172Z,3.17
2018-08-09T22:06:23.525Z,2.70
2018-08-09T22:08:56.897Z,3.33
2018-08-09T22:11:30.244Z,3.10
2018-08-09T22:14:03.692Z,2.30
2018-08-09T22:16:37.238Z,2.40
2018-08-09T22:19:10.881Z,3.30
2018-08-09T22:21:45.318Z,3.00
2018-08-09T22:24:13.399Z,3.17
2018-08-09T22:26:41.472Z,2.87
2018-08-09T22:29:09.561Z,3.97
2018-08-09T22:31:37.560Z,2.90
2018-08-09T22:34:05.609Z,2.87
2018-08-09T22:36:33.682Z,3.07
2018-08-09T22:39:01.682Z,3.10
2018-08-09T22:41:29.704Z,3.00
2018-08-09T22:43:57.764Z,3.27
2018-08-09T22:46:25.769Z,2.97
2018-08-09T22:48:53.773Z,3.00
2018-08-09T22:51:21.793Z,2.97
2018-08-09T22:53:49.848Z,3.40
2018-08-09T22:56:17.861Z,3.10
2018-08-09T22:58:45.943Z,3.60
2018-08-09T23:01:13.960Z,3.03
2018-08-09T23:03:42.114Z,3.17
2018-08-09T23:06:10.170Z,2.93
2018-08-09T23:08:38.169Z,3.80
2018-08-09T23:11:06.461Z,4.27
2018-08-09T23:13:34.551Z,3.00
2018-08-09T23:16:02.644Z,2.80
2018-08-09T23:18:30.692Z,3.27
2018-08-09T23:20:58.799Z,3.33
2018-08-09T23:23:26.801Z,3.50
2018-08-09T23:25:54.803Z,2.67
2018-08-09T23:28:23.944Z,3.23
2018-08-09T23:30:51.933Z,3.50
2018-08-09T23:33:22.552Z,3.60
2018-08-09T23:35:50.555Z,2.90
2018-08-09T23:38:18.567Z,3.03
2018-08-09T23:40:46.553Z,4.20
2018-08-09T23:43:14.573Z,3.40
2018-08-09T23:45:42.624Z,3.70
2018-08-09T23:48:10.624Z,4.00
2018-08-09T23:50:38.644Z,3.50
2018-08-09T23:53:06.665Z,3.00
2018-08-09T23:55:34.680Z,3.07
2018-08-09T23:58:02.732Z,2.73
